Czas  jedna godzina 30 minut

Współrzędne 958

Uploaded 14 lutego 2018

Recorded kwietnia 2009

-
-
194 m
144 m
0
3,7
7,5
14,97 km

Obejrzane 40 razy, pobrane 1 razy

w pobliżu Eringate, Ontàrio (Canada)

Pela 1ªvez corri aqui junto do Hotel perto do Aeroporto de YYZ. Visita a Woodbine CYYZ 251200Z 21008KT 15SM FEW120 SCT150 BKN240 18/09 A2998 RMK AC2AC2CI2 SLP152. É preciso ter algum cuidado quando corremos num sítio desconhecido, podemos não ir na rota correcta. Desta vez, por pouco, não entrei na 427 South, e se não fossem os sinais teria entrado. Correr na cidade tem muitos inconvenientes. O maior será a poluição e o perigo do contacto com tanta viatura. Dias melhores virão.

Komentarze

    You can or this trail